sensor_id;sensor_type;location;lat;lon;timestamp;P1;durP1;ratioP1;P2;durP2;ratioP2
56043;SDS011;41912;51.022;3.664;2024-01-25T00:01:11;52.38;;;7.45;;
56043;SDS011;41912;51.022;3.664;2024-01-25T00:03:37;46.95;;;6.53;;
56043;SDS011;41912;51.022;3.664;2024-01-25T00:06:04;40.53;;;8.40;;
56043;SDS011;41912;51.022;3.664;2024-01-25T00:08:30;46.28;;;6.70;;
56043;SDS011;41912;51.022;3.664;2024-01-25T00:10:56;40.25;;;6.80;;
56043;SDS011;41912;51.022;3.664;2024-01-25T00:13:22;52.38;;;7.53;;
56043;SDS011;41912;51.022;3.664;2024-01-25T00:15:47;52.63;;;7.10;;
56043;SDS011;41912;51.022;3.664;2024-01-25T00:18:13;58.60;;;8.55;;
56043;SDS011;41912;51.022;3.664;2024-01-25T00:20:38;37.45;;;6.75;;
56043;SDS011;41912;51.022;3.664;2024-01-25T00:23:04;53.72;;;6.15;;
56043;SDS011;41912;51.022;3.664;2024-01-25T00:25:30;43.05;;;6.95;;
56043;SDS011;41912;51.022;3.664;2024-01-25T00:27:55;45.33;;;6.93;;
56043;SDS011;41912;51.022;3.664;2024-01-25T00:30:21;59.60;;;7.53;;
56043;SDS011;41912;51.022;3.664;2024-01-25T00:32:47;43.72;;;6.68;;
56043;SDS011;41912;51.022;3.664;2024-01-25T00:35:13;55.58;;;8.50;;
56043;SDS011;41912;51.022;3.664;2024-01-25T00:37:40;46.90;;;6.72;;
56043;SDS011;41912;51.022;3.664;2024-01-25T00:40:06;38.88;;;7.22;;
56043;SDS011;41912;51.022;3.664;2024-01-25T00:42:34;43.13;;;6.60;;
56043;SDS011;41912;51.022;3.664;2024-01-25T00:45:06;47.70;;;6.43;;
56043;SDS011;41912;51.022;3.664;2024-01-25T00:47:32;42.10;;;7.05;;
56043;SDS011;41912;51.022;3.664;2024-01-25T00:49:58;41.83;;;6.90;;
56043;SDS011;41912;51.022;3.664;2024-01-25T00:52:24;53.22;;;6.60;;
56043;SDS011;41912;51.022;3.664;2024-01-25T00:54:49;32.88;;;6.13;;
56043;SDS011;41912;51.022;3.664;2024-01-25T00:57:15;46.80;;;6.50;;
56043;SDS011;41912;51.022;3.664;2024-01-25T00:59:41;45.38;;;5.80;;
56043;SDS011;41912;51.022;3.664;2024-01-25T01:02:09;30.38;;;5.43;;
56043;SDS011;41912;51.022;3.664;2024-01-25T01:04:37;46.15;;;6.53;;
56043;SDS011;41912;51.022;3.664;2024-01-25T01:07:03;49.22;;;6.30;;
56043;SDS011;41912;51.022;3.664;2024-01-25T01:09:29;37.38;;;6.88;;
56043;SDS011;41912;51.022;3.664;2024-01-25T01:11:55;45.72;;;7.60;;
56043;SDS011;41912;51.022;3.664;2024-01-25T01:14:20;35.72;;;5.90;;
56043;SDS011;41912;51.022;3.664;2024-01-25T01:16:46;35.17;;;6.20;;
56043;SDS011;41912;51.022;3.664;2024-01-25T01:19:12;36.72;;;5.80;;
56043;SDS011;41912;51.022;3.664;2024-01-25T01:21:37;34.13;;;5.85;;
56043;SDS011;41912;51.022;3.664;2024-01-25T01:24:03;40.63;;;6.47;;
56043;SDS011;41912;51.022;3.664;2024-01-25T01:26:29;49.78;;;6.90;;
56043;SDS011;41912;51.022;3.664;2024-01-25T01:28:55;39.47;;;6.72;;
56043;SDS011;41912;51.022;3.664;2024-01-25T01:31:21;33.65;;;5.10;;
56043;SDS011;41912;51.022;3.664;2024-01-25T01:33:46;36.50;;;4.40;;
56043;SDS011;41912;51.022;3.664;2024-01-25T01:36:13;36.10;;;6.68;;
56043;SDS011;41912;51.022;3.664;2024-01-25T01:38:38;44.90;;;6.97;;
56043;SDS011;41912;51.022;3.664;2024-01-25T01:41:04;41.42;;;5.90;;
56043;SDS011;41912;51.022;3.664;2024-01-25T01:43:30;39.05;;;6.43;;
56043;SDS011;41912;51.022;3.664;2024-01-25T01:45:57;35.00;;;6.00;;
56043;SDS011;41912;51.022;3.664;2024-01-25T01:48:28;35.13;;;6.38;;
56043;SDS011;41912;51.022;3.664;2024-01-25T01:50:53;36.33;;;6.15;;
56043;SDS011;41912;51.022;3.664;2024-01-25T01:53:19;38.88;;;5.43;;
56043;SDS011;41912;51.022;3.664;2024-01-25T01:55:45;34.55;;;5.10;;
56043;SDS011;41912;51.022;3.664;2024-01-25T01:58:10;34.20;;;4.95;;
56043;SDS011;41912;51.022;3.664;2024-01-25T02:00:37;29.70;;;5.30;;
56043;SDS011;41912;51.022;3.664;2024-01-25T02:03:03;34.65;;;5.05;;
56043;SDS011;41912;51.022;3.664;2024-01-25T02:05:29;33.00;;;5.53;;
56043;SDS011;41912;51.022;3.664;2024-01-25T02:07:55;21.67;;;4.28;;
56043;SDS011;41912;51.022;3.664;2024-01-25T02:10:20;30.13;;;5.20;;
56043;SDS011;41912;51.022;3.664;2024-01-25T02:12:46;27.42;;;4.53;;
56043;SDS011;41912;51.022;3.664;2024-01-25T02:15:11;27.90;;;4.63;;
56043;SDS011;41912;51.022;3.664;2024-01-25T02:17:37;29.30;;;4.28;;
56043;SDS011;41912;51.022;3.664;2024-01-25T02:20:04;24.15;;;5.18;;
56043;SDS011;41912;51.022;3.664;2024-01-25T02:22:30;22.85;;;4.45;;
56043;SDS011;41912;51.022;3.664;2024-01-25T02:24:56;30.58;;;5.97;;
56043;SDS011;41912;51.022;3.664;2024-01-25T02:27:21;23.27;;;3.97;;
56043;SDS011;41912;51.022;3.664;2024-01-25T02:29:47;29.23;;;5.72;;
56043;SDS011;41912;51.022;3.664;2024-01-25T02:32:12;29.80;;;5.30;;
56043;SDS011;41912;51.022;3.664;2024-01-25T02:34:38;21.67;;;3.58;;
56043;SDS011;41912;51.022;3.664;2024-01-25T02:37:03;25.08;;;3.90;;
56043;SDS011;41912;51.022;3.664;2024-01-25T02:39:30;17.52;;;3.22;;
56043;SDS011;41912;51.022;3.664;2024-01-25T02:41:56;24.10;;;4.60;;
56043;SDS011;41912;51.022;3.664;2024-01-25T02:44:21;29.30;;;4.03;;
56043;SDS011;41912;51.022;3.664;2024-01-25T02:46:47;32.50;;;5.10;;
56043;SDS011;41912;51.022;3.664;2024-01-25T02:49:12;29.50;;;5.18;;
56043;SDS011;41912;51.022;3.664;2024-01-25T02:51:38;25.83;;;5.13;;
56043;SDS011;41912;51.022;3.664;2024-01-25T02:54:04;22.42;;;4.78;;
56043;SDS011;41912;51.022;3.664;2024-01-25T02:56:29;24.70;;;4.88;;
56043;SDS011;41912;51.022;3.664;2024-01-25T02:58:59;27.48;;;4.95;;
56043;SDS011;41912;51.022;3.664;2024-01-25T03:01:36;35.40;;;6.25;;
56043;SDS011;41912;51.022;3.664;2024-01-25T03:04:03;22.83;;;5.15;;
56043;SDS011;41912;51.022;3.664;2024-01-25T03:06:28;25.00;;;4.28;;
56043;SDS011;41912;51.022;3.664;2024-01-25T03:08:54;28.77;;;5.45;;
56043;SDS011;41912;51.022;3.664;2024-01-25T03:11:19;26.73;;;4.28;;
56043;SDS011;41912;51.022;3.664;2024-01-25T03:13:45;20.52;;;4.25;;
56043;SDS011;41912;51.022;3.664;2024-01-25T03:16:11;27.30;;;5.28;;
56043;SDS011;41912;51.022;3.664;2024-01-25T03:18:36;27.10;;;4.32;;
56043;SDS011;41912;51.022;3.664;2024-01-25T03:21:02;19.55;;;3.70;;
56043;SDS011;41912;51.022;3.664;2024-01-25T03:23:27;21.38;;;3.97;;
56043;SDS011;41912;51.022;3.664;2024-01-25T03:25:53;16.65;;;4.25;;
56043;SDS011;41912;51.022;3.664;2024-01-25T03:28:19;17.65;;;3.97;;
56043;SDS011;41912;51.022;3.664;2024-01-25T03:30:44;22.02;;;3.85;;
56043;SDS011;41912;51.022;3.664;2024-01-25T03:33:10;17.63;;;3.67;;
56043;SDS011;41912;51.022;3.664;2024-01-25T03:35:36;19.88;;;3.33;;
56043;SDS011;41912;51.022;3.664;2024-01-25T03:38:01;26.13;;;4.82;;
56043;SDS011;41912;51.022;3.664;2024-01-25T03:40:27;21.38;;;5.00;;
56043;SDS011;41912;51.022;3.664;2024-01-25T03:42:53;30.17;;;4.55;;
56043;SDS011;41912;51.022;3.664;2024-01-25T03:45:18;22.02;;;3.67;;
56043;SDS011;41912;51.022;3.664;2024-01-25T03:47:44;23.38;;;3.95;;
56043;SDS011;41912;51.022;3.664;2024-01-25T03:50:09;28.65;;;4.03;;
56043;SDS011;41912;51.022;3.664;2024-01-25T03:52:35;25.00;;;4.20;;
56043;SDS011;41912;51.022;3.664;2024-01-25T03:55:01;25.70;;;4.80;;
56043;SDS011;41912;51.022;3.664;2024-01-25T03:57:26;21.48;;;3.42;;
56043;SDS011;41912;51.022;3.664;2024-01-25T03:59:52;20.05;;;4.28;;
56043;SDS011;41912;51.022;3.664;2024-01-25T04:02:17;23.10;;;4.43;;
56043;SDS011;41912;51.022;3.664;2024-01-25T04:04:43;22.08;;;3.60;;
56043;SDS011;41912;51.022;3.664;2024-01-25T04:07:09;22.33;;;3.75;;
56043;SDS011;41912;51.022;3.664;2024-01-25T04:09:34;19.42;;;3.80;;
56043;SDS011;41912;51.022;3.664;2024-01-25T04:12:00;15.90;;;4.07;;
56043;SDS011;41912;51.022;3.664;2024-01-25T04:14:25;19.27;;;3.75;;
56043;SDS011;41912;51.022;3.664;2024-01-25T04:16:54;24.70;;;4.60;;
56043;SDS011;41912;51.022;3.664;2024-01-25T04:19:19;26.88;;;4.45;;
56043;SDS011;41912;51.022;3.664;2024-01-25T04:21:45;23.95;;;4.50;;
56043;SDS011;41912;51.022;3.664;2024-01-25T04:24:10;31.40;;;5.38;;
56043;SDS011;41912;51.022;3.664;2024-01-25T04:26:36;43.38;;;7.53;;
56043;SDS011;41912;51.022;3.664;2024-01-25T04:29:02;21.98;;;4.18;;
56043;SDS011;41912;51.022;3.664;2024-01-25T04:31:27;33.47;;;4.82;;
56043;SDS011;41912;51.022;3.664;2024-01-25T04:33:53;14.32;;;3.90;;
56043;SDS011;41912;51.022;3.664;2024-01-25T04:36:18;19.55;;;3.42;;
56043;SDS011;41912;51.022;3.664;2024-01-25T04:38:44;26.10;;;4.72;;
56043;SDS011;41912;51.022;3.664;2024-01-25T04:41:11;27.85;;;6.10;;
56043;SDS011;41912;51.022;3.664;2024-01-25T04:43:36;30.75;;;5.18;;
56043;SDS011;41912;51.022;3.664;2024-01-25T04:46:02;20.98;;;4.25;;
56043;SDS011;41912;51.022;3.664;2024-01-25T04:48:28;21.05;;;4.05;;
56043;SDS011;41912;51.022;3.664;2024-01-25T04:50:57;31.45;;;5.60;;
56043;SDS011;41912;51.022;3.664;2024-01-25T04:53:23;26.80;;;6.30;;
56043;SDS011;41912;51.022;3.664;2024-01-25T04:55:49;34.45;;;7.00;;
56043;SDS011;41912;51.022;3.664;2024-01-25T04:58:15;31.42;;;5.07;;
56043;SDS011;41912;51.022;3.664;2024-01-25T05:00:41;24.25;;;5.15;;
56043;SDS011;41912;51.022;3.664;2024-01-25T05:03:06;19.38;;;4.68;;
56043;SDS011;41912;51.022;3.664;2024-01-25T05:05:32;23.92;;;4.38;;
56043;SDS011;41912;51.022;3.664;2024-01-25T05:07:57;23.33;;;4.30;;
56043;SDS011;41912;51.022;3.664;2024-01-25T05:10:23;34.08;;;5.78;;
56043;SDS011;41912;51.022;3.664;2024-01-25T05:12:50;35.20;;;7.05;;
56043;SDS011;41912;51.022;3.664;2024-01-25T05:15:16;25.95;;;5.68;;
56043;SDS011;41912;51.022;3.664;2024-01-25T05:17:41;23.60;;;4.93;;
56043;SDS011;41912;51.022;3.664;2024-01-25T05:20:07;24.65;;;4.32;;
56043;SDS011;41912;51.022;3.664;2024-01-25T05:22:34;24.15;;;5.05;;
56043;SDS011;41912;51.022;3.664;2024-01-25T05:25:07;28.42;;;4.45;;
56043;SDS011;41912;51.022;3.664;2024-01-25T05:27:33;26.90;;;5.53;;
56043;SDS011;41912;51.022;3.664;2024-01-25T05:29:59;28.65;;;5.88;;
56043;SDS011;41912;51.022;3.664;2024-01-25T05:32:25;33.88;;;5.47;;
56043;SDS011;41912;51.022;3.664;2024-01-25T05:34:50;29.50;;;4.65;;
56043;SDS011;41912;51.022;3.664;2024-01-25T05:37:16;27.00;;;5.32;;
56043;SDS011;41912;51.022;3.664;2024-01-25T05:39:41;20.45;;;4.78;;
56043;SDS011;41912;51.022;3.664;2024-01-25T05:42:07;21.00;;;5.78;;
56043;SDS011;41912;51.022;3.664;2024-01-25T05:44:33;24.55;;;5.50;;
56043;SDS011;41912;51.022;3.664;2024-01-25T05:46:59;17.58;;;4.25;;
56043;SDS011;41912;51.022;3.664;2024-01-25T05:49:25;21.15;;;4.55;;
56043;SDS011;41912;51.022;3.664;2024-01-25T05:51:51;26.33;;;4.85;;
56043;SDS011;41912;51.022;3.664;2024-01-25T05:54:16;22.30;;;4.95;;
56043;SDS011;41912;51.022;3.664;2024-01-25T05:56:42;20.80;;;4.97;;
56043;SDS011;41912;51.022;3.664;2024-01-25T05:59:07;22.92;;;4.28;;
56043;SDS011;41912;51.022;3.664;2024-01-25T06:01:33;27.20;;;5.03;;
56043;SDS011;41912;51.022;3.664;2024-01-25T06:03:59;21.02;;;4.35;;
56043;SDS011;41912;51.022;3.664;2024-01-25T06:06:24;25.80;;;5.65;;
56043;SDS011;41912;51.022;3.664;2024-01-25T06:08:50;27.00;;;5.40;;
56043;SDS011;41912;51.022;3.664;2024-01-25T06:11:15;25.05;;;5.10;;
56043;SDS011;41912;51.022;3.664;2024-01-25T06:13:41;27.92;;;5.60;;
56043;SDS011;41912;51.022;3.664;2024-01-25T06:16:07;35.03;;;5.63;;
56043;SDS011;41912;51.022;3.664;2024-01-25T06:18:33;23.70;;;5.20;;
56043;SDS011;41912;51.022;3.664;2024-01-25T06:20:58;23.02;;;4.68;;
56043;SDS011;41912;51.022;3.664;2024-01-25T06:23:24;27.15;;;5.78;;
56043;SDS011;41912;51.022;3.664;2024-01-25T06:25:50;23.52;;;5.03;;
56043;SDS011;41912;51.022;3.664;2024-01-25T06:28:15;20.80;;;4.22;;
56043;SDS011;41912;51.022;3.664;2024-01-25T06:30:41;26.25;;;5.72;;
56043;SDS011;41912;51.022;3.664;2024-01-25T06:33:06;28.58;;;6.28;;
56043;SDS011;41912;51.022;3.664;2024-01-25T06:35:32;32.08;;;6.85;;
56043;SDS011;41912;51.022;3.664;2024-01-25T06:37:59;35.83;;;6.68;;
56043;SDS011;41912;51.022;3.664;2024-01-25T06:40:24;33.55;;;6.82;;
56043;SDS011;41912;51.022;3.664;2024-01-25T06:42:50;31.45;;;7.90;;
56043;SDS011;41912;51.022;3.664;2024-01-25T06:45:15;28.40;;;6.10;;
56043;SDS011;41912;51.022;3.664;2024-01-25T06:47:42;34.35;;;5.72;;
56043;SDS011;41912;51.022;3.664;2024-01-25T06:50:08;25.85;;;6.20;;
56043;SDS011;41912;51.022;3.664;2024-01-25T06:52:34;43.58;;;6.85;;
56043;SDS011;41912;51.022;3.664;2024-01-25T06:55:00;32.50;;;7.88;;
56043;SDS011;41912;51.022;3.664;2024-01-25T06:57:25;27.67;;;5.28;;
56043;SDS011;41912;51.022;3.664;2024-01-25T06:59:51;35.33;;;6.03;;
56043;SDS011;41912;51.022;3.664;2024-01-25T07:02:16;48.97;;;7.60;;
56043;SDS011;41912;51.022;3.664;2024-01-25T07:04:42;35.03;;;5.60;;
56043;SDS011;41912;51.022;3.664;2024-01-25T07:07:08;32.75;;;7.55;;
56043;SDS011;41912;51.022;3.664;2024-01-25T07:09:34;30.25;;;7.28;;
56043;SDS011;41912;51.022;3.664;2024-01-25T07:12:00;31.02;;;7.60;;
56043;SDS011;41912;51.022;3.664;2024-01-25T07:14:25;22.75;;;7.70;;
56043;SDS011;41912;51.022;3.664;2024-01-25T07:16:51;23.80;;;7.50;;
56043;SDS011;41912;51.022;3.664;2024-01-25T07:19:17;31.65;;;8.50;;
56043;SDS011;41912;51.022;3.664;2024-01-25T07:21:42;29.85;;;7.57;;
56043;SDS011;41912;51.022;3.664;2024-01-25T07:24:10;26.20;;;8.48;;
56043;SDS011;41912;51.022;3.664;2024-01-25T07:26:36;32.90;;;7.95;;
56043;SDS011;41912;51.022;3.664;2024-01-25T07:29:02;38.50;;;8.80;;
56043;SDS011;41912;51.022;3.664;2024-01-25T07:31:28;39.25;;;8.77;;
56043;SDS011;41912;51.022;3.664;2024-01-25T07:33:54;23.20;;;7.55;;
56043;SDS011;41912;51.022;3.664;2024-01-25T07:36:20;26.70;;;7.65;;
56043;SDS011;41912;51.022;3.664;2024-01-25T07:38:46;27.83;;;8.20;;
56043;SDS011;41912;51.022;3.664;2024-01-25T07:41:12;27.70;;;8.48;;
56043;SDS011;41912;51.022;3.664;2024-01-25T07:43:38;30.60;;;8.18;;
56043;SDS011;41912;51.022;3.664;2024-01-25T07:46:03;36.03;;;8.48;;
56043;SDS011;41912;51.022;3.664;2024-01-25T07:48:29;30.65;;;8.38;;
56043;SDS011;41912;51.022;3.664;2024-01-25T07:50:55;25.00;;;7.25;;
56043;SDS011;41912;51.022;3.664;2024-01-25T07:53:21;25.63;;;8.88;;
56043;SDS011;41912;51.022;3.664;2024-01-25T07:55:47;23.73;;;7.57;;
56043;SDS011;41912;51.022;3.664;2024-01-25T07:58:14;21.50;;;7.93;;
56043;SDS011;41912;51.022;3.664;2024-01-25T08:00:40;24.23;;;8.10;;
56043;SDS011;41912;51.022;3.664;2024-01-25T08:03:07;19.67;;;8.27;;
56043;SDS011;41912;51.022;3.664;2024-01-25T08:05:33;19.13;;;7.68;;
56043;SDS011;41912;51.022;3.664;2024-01-25T08:07:58;24.02;;;7.88;;
56043;SDS011;41912;51.022;3.664;2024-01-25T08:10:24;21.55;;;6.85;;
56043;SDS011;41912;51.022;3.664;2024-01-25T08:12:50;17.35;;;7.80;;
56043;SDS011;41912;51.022;3.664;2024-01-25T08:15:16;16.27;;;7.15;;
56043;SDS011;41912;51.022;3.664;2024-01-25T08:17:42;16.73;;;7.70;;
56043;SDS011;41912;51.022;3.664;2024-01-25T08:20:08;17.85;;;6.75;;
56043;SDS011;41912;51.022;3.664;2024-01-25T08:22:34;13.93;;;6.90;;
56043;SDS011;41912;51.022;3.664;2024-01-25T08:25:00;14.48;;;7.32;;
56043;SDS011;41912;51.022;3.664;2024-01-25T08:27:25;11.88;;;6.80;;
56043;SDS011;41912;51.022;3.664;2024-01-25T08:29:51;18.90;;;7.47;;
56043;SDS011;41912;51.022;3.664;2024-01-25T08:32:17;13.55;;;7.25;;
56043;SDS011;41912;51.022;3.664;2024-01-25T08:34:42;15.93;;;8.20;;
56043;SDS011;41912;51.022;3.664;2024-01-25T08:37:08;14.02;;;7.03;;
56043;SDS011;41912;51.022;3.664;2024-01-25T08:39:33;16.23;;;7.70;;
56043;SDS011;41912;51.022;3.664;2024-01-25T08:41:59;15.60;;;7.50;;
56043;SDS011;41912;51.022;3.664;2024-01-25T08:44:30;13.65;;;7.38;;
56043;SDS011;41912;51.022;3.664;2024-01-25T08:46:56;12.82;;;6.75;;
56043;SDS011;41912;51.022;3.664;2024-01-25T08:49:22;16.25;;;7.43;;
56043;SDS011;41912;51.022;3.664;2024-01-25T08:51:47;15.70;;;7.18;;
56043;SDS011;41912;51.022;3.664;2024-01-25T08:54:13;16.55;;;7.75;;
56043;SDS011;41912;51.022;3.664;2024-01-25T08:56:39;16.92;;;7.90;;
56043;SDS011;41912;51.022;3.664;2024-01-25T08:59:05;16.17;;;6.75;;
56043;SDS011;41912;51.022;3.664;2024-01-25T09:01:30;16.35;;;7.63;;
56043;SDS011;41912;51.022;3.664;2024-01-25T09:03:56;17.30;;;8.13;;
56043;SDS011;41912;51.022;3.664;2024-01-25T09:06:27;16.45;;;6.97;;
56043;SDS011;41912;51.022;3.664;2024-01-25T09:08:53;18.33;;;7.07;;
56043;SDS011;41912;51.022;3.664;2024-01-25T09:11:18;17.10;;;7.78;;
56043;SDS011;41912;51.022;3.664;2024-01-25T09:13:44;15.77;;;7.55;;
56043;SDS011;41912;51.022;3.664;2024-01-25T09:16:12;15.45;;;7.65;;
56043;SDS011;41912;51.022;3.664;2024-01-25T09:18:38;18.42;;;7.40;;
56043;SDS011;41912;51.022;3.664;2024-01-25T09:21:04;17.25;;;7.07;;
56043;SDS011;41912;51.022;3.664;2024-01-25T09:23:41;18.55;;;7.28;;
56043;SDS011;41912;51.022;3.664;2024-01-25T09:26:15;21.23;;;8.80;;
56043;SDS011;41912;51.022;3.664;2024-01-25T09:28:41;16.00;;;7.78;;
56043;SDS011;41912;51.022;3.664;2024-01-25T09:31:07;13.25;;;7.28;;
56043;SDS011;41912;51.022;3.664;2024-01-25T09:33:32;18.30;;;8.57;;
56043;SDS011;41912;51.022;3.664;2024-01-25T09:35:58;20.73;;;8.27;;
56043;SDS011;41912;51.022;3.664;2024-01-25T09:38:24;20.52;;;8.50;;
56043;SDS011;41912;51.022;3.664;2024-01-25T09:40:50;14.85;;;7.80;;
56043;SDS011;41912;51.022;3.664;2024-01-25T09:43:16;19.75;;;7.25;;
56043;SDS011;41912;51.022;3.664;2024-01-25T09:45:42;28.05;;;9.40;;
56043;SDS011;41912;51.022;3.664;2024-01-25T09:48:09;23.98;;;8.63;;
56043;SDS011;41912;51.022;3.664;2024-01-25T09:50:35;20.98;;;7.68;;
56043;SDS011;41912;51.022;3.664;2024-01-25T09:53:02;20.45;;;8.20;;
56043;SDS011;41912;51.022;3.664;2024-01-25T09:55:30;20.83;;;8.07;;
56043;SDS011;41912;51.022;3.664;2024-01-25T09:58:03;17.90;;;8.32;;
56043;SDS011;41912;51.022;3.664;2024-01-25T10:00:32;24.00;;;8.00;;
56043;SDS011;41912;51.022;3.664;2024-01-25T10:02:58;19.25;;;7.78;;
56043;SDS011;41912;51.022;3.664;2024-01-25T10:05:24;25.30;;;8.25;;
56043;SDS011;41912;51.022;3.664;2024-01-25T10:07:49;23.17;;;9.40;;
56043;SDS011;41912;51.022;3.664;2024-01-25T10:10:15;32.55;;;9.02;;
56043;SDS011;41912;51.022;3.664;2024-01-25T10:12:41;26.48;;;8.45;;
56043;SDS011;41912;51.022;3.664;2024-01-25T10:15:08;28.45;;;8.77;;
56043;SDS011;41912;51.022;3.664;2024-01-25T10:17:34;20.75;;;7.75;;
56043;SDS011;41912;51.022;3.664;2024-01-25T10:20:00;24.83;;;7.88;;
56043;SDS011;41912;51.022;3.664;2024-01-25T10:22:26;25.05;;;8.65;;
56043;SDS011;41912;51.022;3.664;2024-01-25T10:24:52;25.42;;;8.50;;
56043;SDS011;41912;51.022;3.664;2024-01-25T10:27:21;26.38;;;7.90;;
56043;SDS011;41912;51.022;3.664;2024-01-25T10:29:48;24.92;;;8.10;;
56043;SDS011;41912;51.022;3.664;2024-01-25T10:32:15;24.30;;;8.35;;
56043;SDS011;41912;51.022;3.664;2024-01-25T10:34:41;26.67;;;8.57;;
56043;SDS011;41912;51.022;3.664;2024-01-25T10:37:09;22.05;;;8.15;;
56043;SDS011;41912;51.022;3.664;2024-01-25T10:39:38;23.15;;;8.30;;
56043;SDS011;41912;51.022;3.664;2024-01-25T10:42:04;29.70;;;8.35;;
56043;SDS011;41912;51.022;3.664;2024-01-25T10:44:31;22.13;;;7.90;;
56043;SDS011;41912;51.022;3.664;2024-01-25T10:46:56;25.85;;;8.88;;
56043;SDS011;41912;51.022;3.664;2024-01-25T10:49:23;20.80;;;8.02;;
56043;SDS011;41912;51.022;3.664;2024-01-25T10:51:50;26.27;;;8.13;;
56043;SDS011;41912;51.022;3.664;2024-01-25T10:54:16;23.88;;;9.35;;
56043;SDS011;41912;51.022;3.664;2024-01-25T10:56:42;27.23;;;8.63;;
56043;SDS011;41912;51.022;3.664;2024-01-25T10:59:08;22.35;;;7.55;;
56043;SDS011;41912;51.022;3.664;2024-01-25T11:01:36;18.58;;;7.88;;
56043;SDS011;41912;51.022;3.664;2024-01-25T11:04:01;30.90;;;9.02;;
56043;SDS011;41912;51.022;3.664;2024-01-25T11:06:27;33.03;;;8.93;;
56043;SDS011;41912;51.022;3.664;2024-01-25T11:09:05;23.63;;;7.90;;
56043;SDS011;41912;51.022;3.664;2024-01-25T11:11:32;28.65;;;8.38;;
56043;SDS011;41912;51.022;3.664;2024-01-25T11:14:00;35.92;;;8.60;;
56043;SDS011;41912;51.022;3.664;2024-01-25T11:16:30;32.15;;;8.55;;
56043;SDS011;41912;51.022;3.664;2024-01-25T11:18:58;35.47;;;8.73;;
56043;SDS011;41912;51.022;3.664;2024-01-25T11:21:39;32.67;;;9.47;;
56043;SDS011;41912;51.022;3.664;2024-01-25T11:26:38;29.92;;;9.27;;
56043;SDS011;41912;51.022;3.664;2024-01-25T11:29:04;30.27;;;9.75;;
56043;SDS011;41912;51.022;3.664;2024-01-25T11:31:30;39.72;;;9.85;;
56043;SDS011;41912;51.022;3.664;2024-01-25T11:33:59;36.22;;;10.75;;
56043;SDS011;41912;51.022;3.664;2024-01-25T11:36:25;34.15;;;8.95;;
56043;SDS011;41912;51.022;3.664;2024-01-25T11:38:51;34.20;;;9.02;;
56043;SDS011;41912;51.022;3.664;2024-01-25T11:41:17;32.08;;;10.75;;
56043;SDS011;41912;51.022;3.664;2024-01-25T11:43:43;29.02;;;9.00;;
56043;SDS011;41912;51.022;3.664;2024-01-25T11:46:08;34.58;;;8.52;;
56043;SDS011;41912;51.022;3.664;2024-01-25T11:48:38;27.63;;;8.45;;
56043;SDS011;41912;51.022;3.664;2024-01-25T11:51:05;31.10;;;8.25;;
56043;SDS011;41912;51.022;3.664;2024-01-25T11:53:30;26.52;;;8.50;;
56043;SDS011;41912;51.022;3.664;2024-01-25T11:55:56;29.27;;;8.43;;
56043;SDS011;41912;51.022;3.664;2024-01-25T11:58:22;21.65;;;7.75;;
56043;SDS011;41912;51.022;3.664;2024-01-25T12:00:48;18.23;;;6.53;;
56043;SDS011;41912;51.022;3.664;2024-01-25T12:03:14;17.60;;;6.55;;
56043;SDS011;41912;51.022;3.664;2024-01-25T12:05:41;24.52;;;6.82;;
56043;SDS011;41912;51.022;3.664;2024-01-25T12:08:13;19.65;;;7.03;;
56043;SDS011;41912;51.022;3.664;2024-01-25T12:10:39;21.10;;;6.63;;
56043;SDS011;41912;51.022;3.664;2024-01-25T12:13:08;19.33;;;5.75;;
56043;SDS011;41912;51.022;3.664;2024-01-25T12:15:35;15.55;;;6.32;;
56043;SDS011;41912;51.022;3.664;2024-01-25T12:18:01;15.13;;;5.60;;
56043;SDS011;41912;51.022;3.664;2024-01-25T12:20:27;18.15;;;6.05;;
56043;SDS011;41912;51.022;3.664;2024-01-25T12:22:53;12.85;;;5.82;;
56043;SDS011;41912;51.022;3.664;2024-01-25T12:25:19;14.25;;;5.30;;
56043;SDS011;41912;51.022;3.664;2024-01-25T12:27:47;12.77;;;5.13;;
56043;SDS011;41912;51.022;3.664;2024-01-25T12:30:14;12.15;;;5.20;;
56043;SDS011;41912;51.022;3.664;2024-01-25T12:32:40;14.02;;;5.35;;
56043;SDS011;41912;51.022;3.664;2024-01-25T12:35:06;12.70;;;5.18;;
56043;SDS011;41912;51.022;3.664;2024-01-25T12:37:33;13.95;;;4.03;;
56043;SDS011;41912;51.022;3.664;2024-01-25T12:39:59;8.75;;;5.10;;
56043;SDS011;41912;51.022;3.664;2024-01-25T12:42:25;11.40;;;4.50;;
56043;SDS011;41912;51.022;3.664;2024-01-25T12:44:52;10.90;;;4.80;;
56043;SDS011;41912;51.022;3.664;2024-01-25T12:47:19;12.75;;;5.30;;
56043;SDS011;41912;51.022;3.664;2024-01-25T12:49:45;10.48;;;4.63;;
56043;SDS011;41912;51.022;3.664;2024-01-25T12:52:11;11.80;;;5.15;;
56043;SDS011;41912;51.022;3.664;2024-01-25T12:54:38;6.82;;;4.05;;
56043;SDS011;41912;51.022;3.664;2024-01-25T12:57:05;12.60;;;5.00;;
56043;SDS011;41912;51.022;3.664;2024-01-25T12:59:31;8.25;;;4.78;;
56043;SDS011;41912;51.022;3.664;2024-01-25T13:01:58;9.30;;;5.13;;
56043;SDS011;41912;51.022;3.664;2024-01-25T13:04:24;9.93;;;4.60;;
56043;SDS011;41912;51.022;3.664;2024-01-25T13:06:51;9.52;;;4.80;;
56043;SDS011;41912;51.022;3.664;2024-01-25T13:09:19;11.70;;;5.57;;
56043;SDS011;41912;51.022;3.664;2024-01-25T13:11:46;11.07;;;5.28;;
56043;SDS011;41912;51.022;3.664;2024-01-25T13:14:12;14.50;;;5.68;;
56043;SDS011;41912;51.022;3.664;2024-01-25T13:16:37;10.38;;;5.70;;
56043;SDS011;41912;51.022;3.664;2024-01-25T13:19:03;14.63;;;6.05;;
56043;SDS011;41912;51.022;3.664;2024-01-25T13:21:29;8.73;;;5.07;;
56043;SDS011;41912;51.022;3.664;2024-01-25T13:23:54;13.85;;;5.88;;
56043;SDS011;41912;51.022;3.664;2024-01-25T13:26:20;13.88;;;6.20;;
56043;SDS011;41912;51.022;3.664;2024-01-25T13:28:46;12.57;;;6.22;;
56043;SDS011;41912;51.022;3.664;2024-01-25T13:31:11;12.40;;;6.57;;
56043;SDS011;41912;51.022;3.664;2024-01-25T13:33:37;10.48;;;5.65;;
56043;SDS011;41912;51.022;3.664;2024-01-25T13:36:03;10.57;;;6.72;;
56043;SDS011;41912;51.022;3.664;2024-01-25T13:38:33;14.48;;;7.75;;
56043;SDS011;41912;51.022;3.664;2024-01-25T13:41:02;11.45;;;6.95;;
56043;SDS011;41912;51.022;3.664;2024-01-25T13:43:28;13.07;;;7.20;;
56043;SDS011;41912;51.022;3.664;2024-01-25T13:45:54;13.10;;;8.15;;
56043;SDS011;41912;51.022;3.664;2024-01-25T13:48:19;13.55;;;7.82;;
56043;SDS011;41912;51.022;3.664;2024-01-25T13:50:45;19.98;;;8.73;;
56043;SDS011;41912;51.022;3.664;2024-01-25T13:53:11;21.85;;;8.88;;
56043;SDS011;41912;51.022;3.664;2024-01-25T13:55:36;18.15;;;8.48;;
56043;SDS011;41912;51.022;3.664;2024-01-25T13:58:03;21.15;;;9.23;;
56043;SDS011;41912;51.022;3.664;2024-01-25T14:00:28;22.90;;;9.55;;
56043;SDS011;41912;51.022;3.664;2024-01-25T14:02:54;21.02;;;9.57;;
56043;SDS011;41912;51.022;3.664;2024-01-25T14:05:20;23.15;;;10.13;;
56043;SDS011;41912;51.022;3.664;2024-01-25T14:07:45;24.58;;;10.32;;
56043;SDS011;41912;51.022;3.664;2024-01-25T14:10:11;22.65;;;10.88;;
56043;SDS011;41912;51.022;3.664;2024-01-25T14:12:37;28.70;;;10.80;;
56043;SDS011;41912;51.022;3.664;2024-01-25T14:15:02;24.92;;;11.80;;
56043;SDS011;41912;51.022;3.664;2024-01-25T14:17:29;25.05;;;11.30;;
56043;SDS011;41912;51.022;3.664;2024-01-25T14:19:54;22.20;;;10.60;;
56043;SDS011;41912;51.022;3.664;2024-01-25T14:22:20;19.10;;;10.75;;
56043;SDS011;41912;51.022;3.664;2024-01-25T14:24:46;21.75;;;11.50;;
56043;SDS011;41912;51.022;3.664;2024-01-25T14:27:12;22.23;;;11.65;;
56043;SDS011;41912;51.022;3.664;2024-01-25T14:29:38;21.65;;;10.95;;